LZB1724 LYTV-LBSF

Flight info

Callsign LZB1724
Flight time 1h 5m
Altitude 35000
Route NIK DCT RAMAP DCT NISVA
Aircraft A320/M-SDE3FGHIRWY/LB1

Departure

Time 2026-04-30 10:06
Airport Tivat Airport (LYTV)

Arrival

Time 2026-04-30 11:11
Airport Sofia Airport (LBSF)
Time Latitude Longitude Altitude Speed Heading
2026-04-30 09:44 42.41212 18.71692 18 ft 0 kts 44°
2026-04-30 09:59 42.41210 18.71698 18 ft 1 kts 97°
2026-04-30 09:59 42.41118 18.71732 19 ft 12 kts 147°
2026-04-30 10:00 42.41030 18.71846 19 ft 4 kts 141°
2026-04-30 10:00 42.41019 18.71854 19 ft 1 kts 150°
2026-04-30 10:01 42.40879 18.71842 19 ft 12 kts 140°
2026-04-30 10:01 42.40825 18.71902 18 ft 11 kts 136°
2026-04-30 10:01 42.40734 18.72010 19 ft 19 kts 145°
2026-04-30 10:02 42.40570 18.72206 19 ft 21 kts 141°
2026-04-30 10:02 42.40420 18.72384 20 ft 30 kts 139°
2026-04-30 10:02 42.40268 18.72560 22 ft 28 kts 139°
2026-04-30 10:02 42.40125 18.72729 22 ft 27 kts 139°
2026-04-30 10:03 42.39974 18.72904 22 ft 28 kts 139°
2026-04-30 10:03 42.39830 18.73073 22 ft 27 kts 139°
2026-04-30 10:03 42.39698 18.73226 24 ft 17 kts 140°
2026-04-30 10:03 42.39627 18.73268 25 ft 8 kts 142°
2026-04-30 10:04 42.39631 18.73288 24 ft 3 kts 15°
2026-04-30 10:04 42.39657 18.73273 25 ft 0 kts 323°
2026-04-30 10:05 42.39691 18.73235 24 ft 21 kts 319°
2026-04-30 10:05 42.40001 18.72875 22 ft 98 kts 319°
2026-04-30 10:05 42.40692 18.72086 56 ft 156 kts 321°
2026-04-30 10:06 42.41575 18.71114 711 ft 166 kts 324°
2026-04-30 10:06 42.42218 18.69839 1769 ft 174 kts 281°
2026-04-30 10:06 42.42148 18.68725 2178 ft 192 kts 249°
2026-04-30 10:06 42.40862 18.66773 2904 ft 229 kts 219°
2026-04-30 10:07 42.39566 18.65429 3753 ft 239 kts 216°
2026-04-30 10:07 42.38218 18.64082 4739 ft 243 kts 217°
2026-04-30 10:07 42.36861 18.62706 5780 ft 245 kts 218°
2026-04-30 10:07 42.35520 18.61303 6843 ft 243 kts 220°
2026-04-30 10:08 42.34623 18.60344 7564 ft 243 kts 220°
2026-04-30 10:08 42.33174 18.59148 8633 ft 248 kts 203°
2026-04-30 10:08 42.31498 18.58635 9738 ft 254 kts 185°
2026-04-30 10:08 42.29715 18.58812 10783 ft 260 kts 180°
2026-04-30 10:09 42.27899 18.59156 11637 ft 268 kts 169°
2026-04-30 10:09 42.26187 18.60253 12439 ft 282 kts 143°
2026-04-30 10:09 42.24952 18.62348 13224 ft 294 kts 115°
2026-04-30 10:09 42.24540 18.65083 13836 ft 305 kts 83°
2026-04-30 10:10 42.25052 18.67858 14512 ft 308 kts 67°
2026-04-30 10:10 42.25769 18.70614 15234 ft 314 kts 66°
2026-04-30 10:10 42.26508 18.73423 15941 ft 321 kts 66°
2026-04-30 10:10 42.27476 18.76142 16652 ft 322 kts 51°
2026-04-30 10:11 42.28910 18.78435 17408 ft 320 kts 35°
2026-04-30 10:11 42.30731 18.80188 17803 ft 327 kts 18°
2026-04-30 10:11 42.32878 18.81208 18273 ft 327 kts
2026-04-30 10:11 42.35129 18.81748 18892 ft 332 kts
2026-04-30 10:12 42.37426 18.82306 19596 ft 338 kts
2026-04-30 10:12 42.39769 18.82885 20059 ft 351 kts
2026-04-30 10:12 42.42241 18.83493 20197 ft 371 kts
2026-04-30 10:12 42.44857 18.84137 20333 ft 392 kts
2026-04-30 10:13 42.47574 18.84813 20811 ft 401 kts
2026-04-30 10:13 42.50332 18.85512 21450 ft 405 kts
2026-04-30 10:13 42.53118 18.86225 22066 ft 410 kts
2026-04-30 10:13 42.55931 18.86942 22656 ft 414 kts
2026-04-30 10:14 42.58777 18.87664 23264 ft 418 kts
2026-04-30 10:14 42.61611 18.88378 23819 ft 422 kts
2026-04-30 10:14 42.67430 18.89832 24814 ft 429 kts
2026-04-30 10:15 42.70372 18.90597 25279 ft 434 kts
2026-04-30 10:15 42.73273 18.91948 25728 ft 449 kts 17°
2026-04-30 10:15 42.76011 18.94134 26161 ft 464 kts 30°
2026-04-30 10:15 42.78440 18.97106 26597 ft 478 kts 42°
2026-04-30 10:16 42.80424 19.00809 27042 ft 491 kts 56°
2026-04-30 10:16 42.81925 19.05021 27455 ft 498 kts 61°
2026-04-30 10:16 42.83372 19.09338 27822 ft 503 kts 61°
2026-04-30 10:17 42.86294 19.18080 28599 ft 511 kts 62°
2026-04-30 10:17 42.89267 19.26959 29356 ft 518 kts 61°
2026-04-30 10:17 42.90767 19.31439 29682 ft 521 kts 61°
2026-04-30 10:18 42.92273 19.35956 29994 ft 525 kts 61°
2026-04-30 10:18 42.93784 19.40498 30317 ft 527 kts 61°
2026-04-30 10:18 42.95304 19.45074 30613 ft 531 kts 61°
2026-04-30 10:19 42.98358 19.54299 31104 ft 535 kts 62°
2026-04-30 10:19 42.99884 19.58922 31447 ft 534 kts 61°
2026-04-30 10:19 43.01407 19.63536 31772 ft 532 kts 61°
2026-04-30 10:19 43.02929 19.68149 32114 ft 532 kts 61°
2026-04-30 10:20 43.04443 19.72748 32493 ft 530 kts 61°
2026-04-30 10:20 43.07448 19.81929 33226 ft 528 kts 61°
2026-04-30 10:20 43.08923 19.86449 33570 ft 528 kts 61°
2026-04-30 10:21 43.10418 19.91030 33903 ft 527 kts 60°
2026-04-30 10:21 43.11913 19.95606 34239 ft 526 kts 60°
2026-04-30 10:21 43.13403 20.00176 34560 ft 525 kts 60°
2026-04-30 10:21 43.14884 20.04733 34912 ft 523 kts 61°
2026-04-30 10:22 43.16357 20.09273 35221 ft 521 kts 61°
2026-04-30 10:22 43.17821 20.13797 35326 ft 518 kts 61°
2026-04-30 10:22 43.20721 20.22785 35325 ft 514 kts 61°
2026-04-30 10:23 43.23610 20.31746 35332 ft 514 kts 61°
2026-04-30 10:23 43.26486 20.40707 35328 ft 513 kts 62°
2026-04-30 10:24 43.29356 20.49679 35314 ft 513 kts 62°
2026-04-30 10:24 43.32215 20.58651 35335 ft 513 kts 62°
2026-04-30 10:25 43.35066 20.67628 35325 ft 513 kts 62°
2026-04-30 10:25 43.37906 20.76617 35319 ft 513 kts 62°
2026-04-30 10:26 43.39983 20.86043 35312 ft 521 kts 79°
2026-04-30 10:26 43.40251 20.91013 35306 ft 522 kts 90°
2026-04-30 10:26 43.39984 20.95989 35304 ft 522 kts 99°
2026-04-30 10:27 43.38131 21.05611 35290 ft 521 kts 109°
2026-04-30 10:27 43.35992 21.15076 35285 ft 523 kts 109°
2026-04-30 10:28 43.33822 21.24614 35282 ft 523 kts 109°
2026-04-30 10:28 43.31651 21.34156 35280 ft 524 kts 109°
2026-04-30 10:29 43.29462 21.43708 35284 ft 525 kts 109°
2026-04-30 10:29 43.27262 21.53273 35284 ft 526 kts 109°
2026-04-30 10:30 43.25060 21.62836 35287 ft 526 kts 109°
2026-04-30 10:30 43.22845 21.72391 35286 ft 526 kts 110°
2026-04-30 10:31 43.20613 21.81945 35290 ft 526 kts 110°
2026-04-30 10:31 43.18369 21.91496 35296 ft 526 kts 110°
2026-04-30 10:32 43.16130 22.01044 35299 ft 527 kts 110°
2026-04-30 10:32 43.13890 22.10596 35277 ft 527 kts 109°
2026-04-30 10:33 43.11629 22.20140 35275 ft 527 kts 110°
2026-04-30 10:33 43.09347 22.29686 35275 ft 528 kts 110°
2026-04-30 10:34 43.07068 22.39226 35280 ft 528 kts 110°
2026-04-30 10:34 43.04785 22.48771 35273 ft 528 kts 110°
2026-04-30 10:35 43.02489 22.58306 35257 ft 528 kts 110°
2026-04-30 10:35 43.00170 22.67848 35238 ft 529 kts 110°
2026-04-30 10:36 42.99007 22.72615 35123 ft 528 kts 110°
2026-04-30 10:36 42.97693 22.77259 33729 ft 524 kts 118°
2026-04-30 10:36 42.95905 22.81628 31571 ft 528 kts 130°
2026-04-30 10:36 42.93668 22.85559 29538 ft 521 kts 137°
2026-04-30 10:37 42.91294 22.89268 27577 ft 516 kts 137°
2026-04-30 10:37 42.88966 22.92946 25978 ft 506 kts 136°
2026-04-30 10:37 42.86741 22.96491 24866 ft 489 kts 135°
2026-04-30 10:37 42.84574 22.99969 24266 ft 462 kts 135°
2026-04-30 10:38 42.82537 23.03239 23498 ft 444 kts 135°
2026-04-30 10:38 42.80601 23.06333 22812 ft 427 kts 136°
2026-04-30 10:38 42.78663 23.09400 22223 ft 427 kts 136°
2026-04-30 10:38 42.76727 23.12445 21632 ft 424 kts 136°
2026-04-30 10:39 42.74800 23.15466 21065 ft 422 kts 136°
2026-04-30 10:39 42.72881 23.18476 20493 ft 419 kts 136°
2026-04-30 10:39 42.70980 23.21467 19944 ft 416 kts 136°
2026-04-30 10:39 42.69094 23.24436 19390 ft 413 kts 136°
2026-04-30 10:40 42.67224 23.27374 18833 ft 410 kts 136°
2026-04-30 10:40 42.65365 23.30292 18243 ft 407 kts 136°
2026-04-30 10:40 42.63633 23.33326 17655 ft 407 kts 127°
2026-04-30 10:40 42.62319 23.36727 17098 ft 408 kts 115°
2026-04-30 10:41 42.61482 23.40394 16493 ft 403 kts 104°
2026-04-30 10:41 42.61157 23.44073 16210 ft 379 kts 96°
2026-04-30 10:41 42.60972 23.47505 16125 ft 351 kts 96°
2026-04-30 10:41 42.60780 23.50693 16001 ft 329 kts 97°
2026-04-30 10:42 42.60590 23.53693 15863 ft 309 kts 97°
2026-04-30 10:42 42.60407 23.56519 15738 ft 293 kts 98°
2026-04-30 10:42 42.60229 23.59240 15609 ft 287 kts 98°
2026-04-30 10:42 42.60055 23.61905 15481 ft 280 kts 98°
2026-04-30 10:43 42.59886 23.64516 15363 ft 276 kts 98°
2026-04-30 10:43 42.59720 23.67115 15049 ft 280 kts 98°
2026-04-30 10:43 42.59548 23.69775 14668 ft 285 kts 98°
2026-04-30 10:43 42.59376 23.72474 14289 ft 290 kts 98°
2026-04-30 10:44 42.59203 23.75219 13894 ft 294 kts 98°
2026-04-30 10:44 42.59030 23.78007 13486 ft 297 kts 98°
2026-04-30 10:44 42.58858 23.80774 13102 ft 299 kts 97°
2026-04-30 10:44 42.58683 23.83587 12714 ft 300 kts 98°
2026-04-30 10:45 42.58507 23.86409 12319 ft 301 kts 98°
2026-04-30 10:45 42.58329 23.89242 11900 ft 303 kts 98°
2026-04-30 10:45 42.58208 23.92107 11446 ft 306 kts 88°
2026-04-30 10:45 42.58874 23.94842 10961 ft 310 kts 56°
2026-04-30 10:46 42.60464 23.96792 10318 ft 308 kts 22°
2026-04-30 10:46 42.62457 23.97529 10045 ft 286 kts
2026-04-30 10:46 42.64300 23.97286 9873 ft 254 kts 330°
2026-04-30 10:46 42.65600 23.95916 9741 ft 225 kts 304°
2026-04-30 10:47 42.66256 23.94120 9519 ft 203 kts 279°
2026-04-30 10:47 42.66465 23.92295 9310 ft 191 kts 273°
2026-04-30 10:47 42.66591 23.90517 8931 ft 189 kts 273°
2026-04-30 10:47 42.66706 23.88736 8464 ft 190 kts 271°
2026-04-30 10:48 42.66819 23.86964 8111 ft 186 kts 274°
2026-04-30 10:48 42.66933 23.85214 7846 ft 188 kts 274°
2026-04-30 10:48 42.67047 23.83440 7585 ft 189 kts 275°
2026-04-30 10:48 42.67161 23.81664 7326 ft 188 kts 276°
2026-04-30 10:49 42.67274 23.79891 7078 ft 188 kts 277°
2026-04-30 10:49 42.67387 23.78122 6833 ft 188 kts 277°
2026-04-30 10:49 42.67501 23.76348 6588 ft 189 kts 276°
2026-04-30 10:49 42.67613 23.74566 6328 ft 189 kts 279°
2026-04-30 10:50 42.67726 23.72786 6066 ft 189 kts 277°
2026-04-30 10:50 42.67835 23.71017 5800 ft 187 kts 276°
2026-04-30 10:50 42.67943 23.69307 5581 ft 175 kts 279°
2026-04-30 10:50 42.68043 23.67711 5324 ft 163 kts 279°
2026-04-30 10:51 42.68135 23.66245 5107 ft 150 kts 279°
2026-04-30 10:51 42.68220 23.64877 4913 ft 141 kts 279°
2026-04-30 10:51 42.68302 23.63564 4717 ft 139 kts 282°
2026-04-30 10:51 42.68383 23.62285 4559 ft 134 kts 280°
2026-04-30 10:52 42.68462 23.61032 4368 ft 132 kts 279°
2026-04-30 10:52 42.68538 23.59800 4189 ft 130 kts 280°
2026-04-30 10:52 42.68614 23.58584 4008 ft 131 kts 281°
2026-04-30 10:52 42.68691 23.57344 3792 ft 131 kts 283°
2026-04-30 10:53 42.68767 23.56121 3589 ft 131 kts 280°
2026-04-30 10:53 42.68839 23.54933 3362 ft 124 kts 279°
2026-04-30 10:53 42.68913 23.53740 3187 ft 125 kts 280°
2026-04-30 10:53 42.68985 23.52572 3019 ft 124 kts 277°
2026-04-30 10:54 42.69055 23.51424 2867 ft 125 kts 278°
2026-04-30 10:54 42.69127 23.50254 2721 ft 123 kts 280°
2026-04-30 10:54 42.69199 23.49098 2540 ft 122 kts 279°
2026-04-30 10:54 42.69271 23.47936 2435 ft 125 kts 279°
2026-04-30 10:55 42.69347 23.46747 2234 ft 128 kts 279°
2026-04-30 10:55 42.69416 23.45542 2060 ft 128 kts 278°
2026-04-30 10:55 42.69490 23.44334 1951 ft 129 kts 279°
2026-04-30 10:55 42.69552 23.43146 1779 ft 115 kts 277°
2026-04-30 10:56 42.69633 23.41910 2121 ft 151 kts 278°
2026-04-30 10:56 42.69754 23.40370 2975 ft 175 kts 278°
2026-04-30 10:56 42.69918 23.38675 4077 ft 188 kts 280°
2026-04-30 10:56 42.70086 23.36848 4859 ft 199 kts 279°
2026-04-30 10:57 42.70332 23.34989 5769 ft 201 kts 296°
2026-04-30 10:57 42.71215 23.33559 6668 ft 201 kts 331°
2026-04-30 10:57 42.72561 23.33119 7503 ft 206 kts
2026-04-30 10:57 42.73502 23.33450 7827 ft 216 kts 25°
2026-04-30 10:58 42.74629 23.34807 7974 ft 222 kts 57°
2026-04-30 10:58 42.75345 23.36659 8002 ft 221 kts 64°
2026-04-30 10:58 42.75971 23.38566 8013 ft 219 kts 66°
2026-04-30 10:58 42.76580 23.40470 8009 ft 220 kts 66°
2026-04-30 10:59 42.77185 23.42394 8010 ft 221 kts 65°
2026-04-30 10:59 42.77786 23.44317 8023 ft 220 kts 66°
2026-04-30 10:59 42.78386 23.46236 8022 ft 220 kts 65°
2026-04-30 10:59 42.78986 23.48152 8027 ft 220 kts 65°
2026-04-30 11:00 42.79506 23.50118 8024 ft 221 kts 82°
2026-04-30 11:00 42.79513 23.52207 8024 ft 221 kts 94°
2026-04-30 11:00 42.79377 23.54286 8028 ft 221 kts 95°
2026-04-30 11:00 42.79219 23.56367 8026 ft 222 kts 96°
2026-04-30 11:01 42.79058 23.58457 8026 ft 222 kts 96°
2026-04-30 11:01 42.78900 23.60538 8024 ft 221 kts 96°
2026-04-30 11:01 42.78742 23.62611 8019 ft 219 kts 96°
2026-04-30 11:01 42.78583 23.64685 8018 ft 220 kts 96°
2026-04-30 11:02 42.78226 23.66697 7997 ft 220 kts 118°
2026-04-30 11:02 42.77446 23.68480 7716 ft 219 kts 124°
2026-04-30 11:02 42.76579 23.70172 7438 ft 218 kts 125°
2026-04-30 11:02 42.75691 23.71835 7144 ft 217 kts 126°
2026-04-30 11:03 42.74793 23.73470 6838 ft 215 kts 126°
2026-04-30 11:03 42.73877 23.75084 6499 ft 216 kts 126°
2026-04-30 11:03 42.72944 23.76679 6222 ft 215 kts 126°
2026-04-30 11:04 42.70899 23.79645 6007 ft 218 kts 153°
2026-04-30 11:04 42.69434 23.80025 5984 ft 217 kts 189°
2026-04-30 11:04 42.68113 23.79208 5720 ft 208 kts 230°
2026-04-30 11:04 42.67493 23.77598 5563 ft 189 kts 266°
2026-04-30 11:05 42.67517 23.75835 5320 ft 184 kts 280°
2026-04-30 11:05 42.67637 23.74106 5066 ft 184 kts 280°
2026-04-30 11:05 42.67750 23.72395 4829 ft 185 kts 280°
2026-04-30 11:05 42.67861 23.70658 4619 ft 184 kts 278°
2026-04-30 11:06 42.67967 23.68938 4381 ft 182 kts 277°
2026-04-30 11:06 42.68076 23.67220 4113 ft 183 kts 278°
2026-04-30 11:06 42.68184 23.65522 4012 ft 179 kts 283°
2026-04-30 11:06 42.68290 23.63828 4017 ft 181 kts 277°
2026-04-30 11:07 42.68394 23.62129 4023 ft 179 kts 279°
2026-04-30 11:07 42.68491 23.60518 4037 ft 159 kts 278°
2026-04-30 11:07 42.68578 23.59121 3972 ft 142 kts 279°
2026-04-30 11:07 42.68659 23.57824 3827 ft 135 kts 281°
2026-04-30 11:08 42.68738 23.56574 3655 ft 131 kts 279°
2026-04-30 11:08 42.68814 23.55349 3419 ft 129 kts 278°
2026-04-30 11:08 42.68886 23.54163 3240 ft 124 kts 278°
2026-04-30 11:08 42.68959 23.52985 3083 ft 124 kts 278°
2026-04-30 11:09 42.69030 23.51816 2920 ft 124 kts 277°
2026-04-30 11:09 42.69102 23.50645 2772 ft 125 kts 278°
2026-04-30 11:09 42.69180 23.49466 2619 ft 126 kts 279°
2026-04-30 11:09 42.69249 23.48284 2424 ft 126 kts 277°
2026-04-30 11:10 42.69322 23.47099 2270 ft 126 kts 278°
2026-04-30 11:10 42.69395 23.45895 2088 ft 128 kts 278°
2026-04-30 11:10 42.69471 23.44688 1913 ft 128 kts 278°
2026-04-30 11:10 42.69543 23.43504 1749 ft 115 kts 275°
2026-04-30 11:11 42.69593 23.42654 1748 ft 66 kts 274°
2026-04-30 11:11 42.69625 23.42137 1744 ft 47 kts 274°
2026-04-30 11:11 42.69632 23.41749 1749 ft 35 kts 260°
2026-04-30 11:11 42.69569 23.41522 1749 ft 22 kts 243°
2026-04-30 11:12 42.69545 23.41466 1750 ft 0 kts 239°
2026-04-30 11:12 42.69544 23.41462 1750 ft 3 kts 241°
2026-04-30 11:12 42.69505 23.41336 1743 ft 17 kts 249°
2026-04-30 11:13 42.69436 23.41212 1750 ft 16 kts 192°
2026-04-30 11:13 42.69322 23.41175 1750 ft 19 kts 192°
2026-04-30 11:13 42.69177 23.41132 1748 ft 18 kts 193°
2026-04-30 11:13 42.69115 23.41028 1741 ft 15 kts 246°
2026-04-30 11:14 42.69084 23.40910 1748 ft 8 kts 250°
2026-04-30 11:14 42.69051 23.40897 1746 ft 4 kts 164°
2026-04-30 11:14 42.69031 23.40905 1746 ft 3 kts 162°
2026-04-30 11:14 42.69013 23.40913 1741 ft 4 kts 162°
2026-04-30 11:15 42.69005 23.40917 1745 ft 0 kts 162°